< < Back
Terminal Aerodrome Forecast


Current Version              Previous Versions:   1  2  3  4  5  6  7  8  9  

Terminal Aerodrome Forecast

629
FTAK31 PAJN 291744
TAFAGS
TAF
PAGS 291744Z 2918/3018 12008KT P6SM -RA BKN035 OVC070
     FM292100 14006KT P6SM -RA SCT025 OVC050
     FM300300 VRB03KT P6SM VCSH OVC050
      AMD LTD TO CLD VIS AND WIND=

Latest METAR

164
SAUS70 KWBC 292000 RRI
MTRAGS
METAR KAGS 291953Z 25004KT 10SM CLR 33/23 A2993 RMK AO2 LTG DSNT S
SLP132 T03330228


USA.gov is the U.S. government's official web portal to all federal, state and local government web resources and services.